Time;durP1;ratioP1;P1;durP2;ratioP2;P2;SDS_P1;SDS_P2;PMS_P1;PMS_P2;Temp;Humidity;BMP_temperature;BMP_pressure;BME280_temperature;BME280_humidity;BME280_pressure;Samples;Min_cycle;Max_cycle;Signal;HPM_P1;HPM_P2
2022/12/09 00:02:03;;;;;;;0.10;0.10;;;;;;;;;;4975226;28;20302;-76
2022/12/09 00:04:32;;;;;;;0.10;0.10;;;;;;;;;;4977920;28;20231;-76
2022/12/09 00:07:00;;;;;;;0.10;0.10;;;;;;;;;;4977517;28;20605;-76
2022/12/09 00:09:29;;;;;;;0.10;0.10;;;;;;;;;;4977130;28;20238;-76
2022/12/09 00:11:58;;;;;;;0.10;0.10;;;;;;;;;;4977164;28;20241;-76
2022/12/09 00:14:28;;;;;;;0.10;0.10;;;;;;;;;;4977100;28;20317;-76
2022/12/09 00:16:56;;;;;;;0.10;0.10;;;;;;;;;;4977294;28;20204;-75
2022/12/09 00:19:25;;;;;;;0.10;0.10;;;;;;;;;;4977162;28;20224;-75
2022/12/09 00:21:53;;;;;;;0.10;0.10;;;;;;;;;;4976849;28;20214;-74
2022/12/09 00:24:22;;;;;;;0.10;0.10;;;;;;;;;;4977035;28;20301;-74
2022/12/09 00:26:50;;;;;;;0.10;0.10;;;;;;;;;;4976896;28;20207;-75
2022/12/09 00:29:19;;;;;;;0.10;0.10;;;;;;;;;;4976917;28;20208;-74
2022/12/09 00:31:49;;;;;;;0.10;0.10;;;;;;;;;;4985288;28;20635;-74
2022/12/09 00:34:17;;;;;;;0.10;0.10;;;;;;;;;;4976794;28;20228;-74
2022/12/09 00:36:46;;;;;;;0.10;0.10;;;;;;;;;;4969329;28;20199;-74
2022/12/09 00:39:15;;;;;;;0.10;0.10;;;;;;;;;;4976468;28;20218;-74
2022/12/09 00:41:43;;;;;;;0.10;0.10;;;;;;;;;;4976987;28;20558;-75
2022/12/09 00:44:12;;;;;;;0.10;0.10;;;;;;;;;;4976861;28;20782;-75
2022/12/09 00:46:40;;;;;;;0.10;0.10;;;;;;;;;;4957790;29;20300;-74
2022/12/09 00:49:11;;;;;;;0.10;0.10;;;;;;;;;;4968854;28;20260;-75
2022/12/09 00:51:39;;;;;;;0.10;0.10;;;;;;;;;;4976403;28;20198;-75
2022/12/09 00:54:08;;;;;;;0.10;0.10;;;;;;;;;;4976296;28;20233;-75
2022/12/09 00:56:37;;;;;;;0.10;0.10;;;;;;;;;;4976523;28;20254;-75
2022/12/09 00:59:05;;;;;;;0.10;0.10;;;;;;;;;;4976625;28;20230;-75
2022/12/09 01:01:34;;;;;;;0.10;0.10;;;;;;;;;;4963150;28;20656;-75
2022/12/09 01:04:03;;;;;;;0.10;0.10;;;;;;;;;;4967759;28;20265;-75
2022/12/09 01:06:34;;;;;;;0.10;0.10;;;;;;;;;;4957252;29;20660;-76
2022/12/09 01:09:03;;;;;;;0.10;0.10;;;;;;;;;;4969684;28;20198;-75
2022/12/09 01:11:31;;;;;;;0.10;0.10;;;;;;;;;;4982930;28;20217;-75
2022/12/09 01:14:01;;;;;;;0.10;0.10;;;;;;;;;;4975785;28;20285;-74
2022/12/09 01:16:31;;;;;;;0.10;0.10;;;;;;;;;;4957389;28;20207;-74
2022/12/09 01:19:01;;;;;;;0.10;0.10;;;;;;;;;;4975001;28;20227;-74
2022/12/09 01:21:30;;;;;;;0.10;0.10;;;;;;;;;;4976328;28;20214;-74
2022/12/09 01:24:00;;;;;;;0.10;0.10;;;;;;;;;;4976048;28;20304;-75
2022/12/09 01:26:28;;;;;;;0.10;0.10;;;;;;;;;;4975484;28;20237;-75
2022/12/09 01:28:57;;;;;;;0.10;0.10;;;;;;;;;;4974827;28;20245;-75
2022/12/09 01:31:26;;;;;;;0.10;0.10;;;;;;;;;;4975854;28;20353;-75
2022/12/09 01:33:55;;;;;;;0.10;0.10;;;;;;;;;;4975520;28;20249;-75
2022/12/09 01:36:24;;;;;;;0.10;0.10;;;;;;;;;;4964467;28;20219;-75
2022/12/09 01:38:53;;;;;;;0.10;0.10;;;;;;;;;;4967142;28;20212;-76
2022/12/09 01:41:24;;;;;;;0.10;0.10;;;;;;;;;;4985935;28;20653;-75
2022/12/09 01:44:08;;;;;;;0.10;0.10;;;;;;;;;;4956242;28;20664;-76
2022/12/09 01:46:37;;;;;;;0.10;0.10;;;;;;;;;;4964230;28;20216;-76
2022/12/09 01:49:07;;;;;;;0.10;0.10;;;;;;;;;;4975271;28;20208;-77
2022/12/09 01:51:36;;;;;;;0.10;0.10;;;;;;;;;;4983831;28;20215;-76
2022/12/09 01:54:04;;;;;;;0.10;0.10;;;;;;;;;;4974912;28;20263;-76
2022/12/09 01:56:35;;;;;;;0.10;0.10;;;;;;;;;;4974453;28;20207;-75
2022/12/09 01:59:05;;;;;;;0.10;0.10;;;;;;;;;;4956312;28;20676;-76
2022/12/09 02:01:34;;;;;;;0.10;0.10;;;;;;;;;;4955880;28;20212;-76
2022/12/09 02:04:03;;;;;;;0.10;0.10;;;;;;;;;;4974601;28;20224;-76
2022/12/09 02:06:32;;;;;;;0.10;0.10;;;;;;;;;;4962905;28;20271;-76
2022/12/09 02:09:00;;;;;;;0.10;0.10;;;;;;;;;;4984620;28;20203;-76
2022/12/09 02:11:38;;;;;;;0.10;0.10;;;;;;;;;;4982391;28;20202;-76
2022/12/09 02:14:14;;;;;;;0.10;0.10;;;;;;;;;;4972862;28;20326;-76
2022/12/09 02:16:46;;;;;;;0.10;0.10;;;;;;;;;;4974874;28;20243;-76
2022/12/09 02:19:23;;;;;;;0.10;0.10;;;;;;;;;;4964018;28;20212;-76
2022/12/09 02:21:55;;;;;;;0.10;0.10;;;;;;;;;;4981425;28;20242;-76
2022/12/09 02:24:28;;;;;;;0.10;0.10;;;;;;;;;;4974462;28;20242;-76
2022/12/09 02:27:00;;;;;;;0.10;0.10;;;;;;;;;;4978749;28;20648;-75
2022/12/09 02:29:44;;;;;;;0.10;0.10;;;;;;;;;;4974335;28;20246;-75
2022/12/09 02:32:30;;;;;;;0.10;0.10;;;;;;;;;;4988975;28;20214;-75
2022/12/09 02:35:02;;;;;;;0.10;0.10;;;;;;;;;;4971324;28;20230;-76
2022/12/09 02:37:33;;;;;;;0.10;0.10;;;;;;;;;;4990905;28;20235;-76
2022/12/09 02:40:03;;;;;;;0.10;0.10;;;;;;;;;;4983656;28;20222;-76
2022/12/09 02:42:34;;;;;;;0.10;0.10;;;;;;;;;;4975916;28;20571;-76
2022/12/09 02:45:05;;;;;;;0.10;0.10;;;;;;;;;;4974291;28;20235;-76
2022/12/09 02:47:35;;;;;;;0.10;0.10;;;;;;;;;;4958133;28;20298;-76
2022/12/09 02:50:08;;;;;;;0.10;0.10;;;;;;;;;;4970535;28;20210;-75
2022/12/09 02:52:37;;;;;;;0.10;0.10;;;;;;;;;;4965664;28;20293;-75
2022/12/09 02:55:08;;;;;;;0.10;0.10;;;;;;;;;;4989110;28;20241;-76
2022/12/09 02:57:39;;;;;;;0.10;0.10;;;;;;;;;;4956684;28;20230;-75
2022/12/09 03:00:08;;;;;;;0.10;0.10;;;;;;;;;;4974762;28;20226;-75
2022/12/09 03:02:40;;;;;;;0.10;0.10;;;;;;;;;;4964772;28;20901;-75
2022/12/09 03:05:14;;;;;;;0.10;0.10;;;;;;;;;;4973684;28;20233;-75
2022/12/09 03:07:44;;;;;;;0.10;0.10;;;;;;;;;;4960722;28;20215;-75
2022/12/09 03:10:20;;;;;;;0.10;0.10;;;;;;;;;;4971060;28;20237;-75
2022/12/09 03:12:52;;;;;;;0.10;0.10;;;;;;;;;;4974080;28;20222;-75
2022/12/09 03:15:24;;;;;;;0.10;0.10;;;;;;;;;;4975452;28;20277;-75
2022/12/09 03:17:53;;;;;;;0.10;0.10;;;;;;;;;;4970078;28;20199;-75
2022/12/09 03:20:25;;;;;;;0.10;0.10;;;;;;;;;;4952095;29;20232;-76
2022/12/09 03:22:55;;;;;;;0.10;0.10;;;;;;;;;;4955302;29;20638;-76
2022/12/09 03:25:26;;;;;;;0.10;0.10;;;;;;;;;;4972822;28;20758;-75
2022/12/09 03:27:56;;;;;;;0.10;0.10;;;;;;;;;;4974501;28;20656;-75
2022/12/09 03:30:25;;;;;;;0.10;0.10;;;;;;;;;;4981247;28;20234;-76
2022/12/09 03:32:55;;;;;;;0.10;0.10;;;;;;;;;;4974259;28;20225;-76
2022/12/09 03:35:27;;;;;;;0.10;0.10;;;;;;;;;;4973555;28;20231;-75
2022/12/09 03:37:56;;;;;;;0.10;0.10;;;;;;;;;;4978406;28;20274;-75
2022/12/09 03:40:26;;;;;;;0.10;0.10;;;;;;;;;;4976954;28;20234;-76
2022/12/09 03:42:56;;;;;;;0.10;0.10;;;;;;;;;;4977873;28;20231;-76
2022/12/09 03:45:25;;;;;;;0.20;0.20;;;;;;;;;;4975044;28;20230;-76
2022/12/09 03:47:54;;;;;;;0.10;0.10;;;;;;;;;;4977619;28;20245;-75
2022/12/09 03:50:24;;;;;;;0.10;0.10;;;;;;;;;;4968283;28;20214;-75
2022/12/09 03:52:59;;;;;;;0.10;0.10;;;;;;;;;;4978176;28;20211;-75
2022/12/09 03:55:30;;;;;;;0.10;0.10;;;;;;;;;;4977293;28;20755;-75
2022/12/09 03:58:02;;;;;;;0.10;0.10;;;;;;;;;;4966258;28;20213;-75
2022/12/09 04:00:32;;;;;;;0.10;0.10;;;;;;;;;;4975886;28;20248;-75
2022/12/09 04:03:00;;;;;;;0.10;0.10;;;;;;;;;;4978133;28;20277;-75
2022/12/09 04:05:29;;;;;;;0.10;0.10;;;;;;;;;;4978286;28;20360;-76
2022/12/09 04:08:00;;;;;;;0.10;0.10;;;;;;;;;;4977590;28;20219;-75
2022/12/09 04:10:28;;;;;;;0.10;0.10;;;;;;;;;;4969845;28;20211;-75
2022/12/09 04:12:57;;;;;;;0.10;0.10;;;;;;;;;;4984672;28;20218;-76
2022/12/09 04:15:25;;;;;;;0.10;0.10;;;;;;;;;;4977023;28;20292;-75
2022/12/09 04:17:54;;;;;;;0.10;0.10;;;;;;;;;;4975217;28;20301;-77
2022/12/09 04:20:22;;;;;;;0.10;0.10;;;;;;;;;;4978330;28;20668;-76
2022/12/09 04:22:51;;;;;;;0.10;0.10;;;;;;;;;;4977545;28;20203;-76
2022/12/09 04:25:21;;;;;;;0.10;0.10;;;;;;;;;;4983770;28;20260;-75
2022/12/09 04:27:50;;;;;;;0.10;0.10;;;;;;;;;;4977434;28;20215;-76
2022/12/09 04:30:19;;;;;;;0.10;0.10;;;;;;;;;;4977046;28;20219;-77
2022/12/09 04:32:48;;;;;;;0.10;0.10;;;;;;;;;;4977333;28;20207;-76
2022/12/09 04:35:16;;;;;;;0.10;0.10;;;;;;;;;;4974805;28;20254;-76
2022/12/09 04:37:45;;;;;;;0.10;0.10;;;;;;;;;;4957623;29;20218;-76
2022/12/09 04:40:14;;;;;;;0.10;0.10;;;;;;;;;;4979551;28;20233;-75
2022/12/09 04:42:52;;;;;;;0.10;0.10;;;;;;;;;;4958095;29;20219;-76
2022/12/09 04:45:21;;;;;;;0.10;0.10;;;;;;;;;;4973819;28;20226;-75
2022/12/09 04:47:50;;;;;;;0.10;0.10;;;;;;;;;;4976235;28;20621;-76
2022/12/09 04:50:18;;;;;;;0.10;0.10;;;;;;;;;;4980224;28;20218;-75
2022/12/09 04:52:47;;;;;;;0.10;0.10;;;;;;;;;;4992397;28;20202;-75
2022/12/09 04:55:16;;;;;;;0.10;0.10;;;;;;;;;;4975516;28;20231;-75
2022/12/09 04:57:44;;;;;;;0.10;0.10;;;;;;;;;;4957248;29;20217;-76
2022/12/09 05:00:18;;;;;;;0.10;0.10;;;;;;;;;;4980202;28;20217;-76
2022/12/09 05:02:47;;;;;;;0.10;0.10;;;;;;;;;;4987652;28;20210;-76
2022/12/09 05:05:16;;;;;;;0.10;0.10;;;;;;;;;;4977009;28;20227;-76
2022/12/09 05:07:45;;;;;;;0.10;0.10;;;;;;;;;;4961721;28;20211;-76
2022/12/09 05:10:14;;;;;;;0.10;0.10;;;;;;;;;;4966635;28;20262;-76
2022/12/09 05:12:43;;;;;;;0.10;0.10;;;;;;;;;;4975539;28;20216;-76
2022/12/09 05:15:12;;;;;;;0.10;0.10;;;;;;;;;;4978742;28;20237;-76
2022/12/09 05:17:42;;;;;;;0.10;0.10;;;;;;;;;;4956531;28;20255;-76
2022/12/09 05:20:12;;;;;;;0.10;0.10;;;;;;;;;;4972975;28;20200;-76
2022/12/09 05:22:41;;;;;;;0.10;0.10;;;;;;;;;;4975722;28;20233;-76
2022/12/09 05:25:10;;;;;;;0.10;0.10;;;;;;;;;;4972997;28;20227;-76
2022/12/09 05:27:39;;;;;;;0.10;0.10;;;;;;;;;;4975758;28;20215;-76
2022/12/09 05:30:08;;;;;;;0.10;0.10;;;;;;;;;;4978724;28;20723;-76
2022/12/09 05:32:37;;;;;;;0.10;0.10;;;;;;;;;;4975359;28;20201;-76
2022/12/09 05:35:08;;;;;;;0.10;0.10;;;;;;;;;;4971234;28;20588;-76
2022/12/09 05:37:37;;;;;;;0.10;0.10;;;;;;;;;;4976098;28;20188;-76
2022/12/09 05:40:06;;;;;;;0.10;0.10;;;;;;;;;;4974699;28;20270;-76
2022/12/09 05:42:36;;;;;;;0.10;0.10;;;;;;;;;;4975811;28;20821;-76
2022/12/09 05:45:09;;;;;;;0.10;0.10;;;;;;;;;;4972599;28;20321;-76
2022/12/09 05:47:38;;;;;;;0.10;0.10;;;;;;;;;;4975166;28;20292;-76
2022/12/09 05:50:09;;;;;;;0.10;0.10;;;;;;;;;;4972332;28;20691;-76
2022/12/09 05:52:39;;;;;;;0.10;0.10;;;;;;;;;;4973752;28;20212;-76
2022/12/09 05:55:08;;;;;;;0.10;0.10;;;;;;;;;;4975528;28;20228;-76
2022/12/09 05:57:38;;;;;;;0.10;0.10;;;;;;;;;;4973347;28;20294;-76
2022/12/09 06:00:07;;;;;;;0.10;0.10;;;;;;;;;;4971942;28;20341;-76
2022/12/09 06:02:37;;;;;;;0.10;0.10;;;;;;;;;;4955320;29;20313;-76
2022/12/09 06:05:06;;;;;;;0.10;0.10;;;;;;;;;;4971725;28;20221;-76
2022/12/09 06:07:36;;;;;;;0.10;0.10;;;;;;;;;;4956056;29;20233;-76
2022/12/09 06:10:06;;;;;;;0.10;0.10;;;;;;;;;;4972047;28;20208;-76
2022/12/09 06:12:36;;;;;;;0.10;0.10;;;;;;;;;;4958885;28;20629;-76
2022/12/09 06:15:06;;;;;;;0.10;0.10;;;;;;;;;;4982829;28;20246;-76
2022/12/09 06:17:37;;;;;;;0.10;0.10;;;;;;;;;;4955878;29;20205;-76
2022/12/09 06:20:08;;;;;;;0.10;0.10;;;;;;;;;;4959478;28;20299;-77
2022/12/09 06:22:39;;;;;;;0.10;0.10;;;;;;;;;;4955748;29;20316;-76
2022/12/09 06:25:08;;;;;;;0.10;0.10;;;;;;;;;;4967078;28;20240;-76
2022/12/09 06:27:38;;;;;;;0.10;0.10;;;;;;;;;;4989670;28;20200;-76
2022/12/09 06:30:07;;;;;;;0.10;0.10;;;;;;;;;;4988255;28;20215;-76
2022/12/09 06:32:36;;;;;;;0.10;0.10;;;;;;;;;;4974428;28;20290;-76
2022/12/09 06:35:06;;;;;;;0.10;0.10;;;;;;;;;;4973219;28;20295;-76
2022/12/09 06:37:35;;;;;;;0.10;0.10;;;;;;;;;;4974386;28;20227;-76
2022/12/09 06:40:07;;;;;;;0.10;0.10;;;;;;;;;;4972772;28;20204;-76
2022/12/09 06:42:35;;;;;;;0.10;0.10;;;;;;;;;;4956067;28;20677;-76
2022/12/09 06:45:05;;;;;;;0.10;0.10;;;;;;;;;;4969333;28;20715;-76
2022/12/09 06:47:35;;;;;;;0.10;0.10;;;;;;;;;;4992898;28;20215;-76
2022/12/09 06:50:04;;;;;;;0.10;0.10;;;;;;;;;;4977495;28;20209;-76
2022/12/09 06:52:36;;;;;;;0.10;0.10;;;;;;;;;;4974598;28;20183;-76
2022/12/09 06:55:07;;;;;;;0.10;0.10;;;;;;;;;;4973198;28;20314;-76
2022/12/09 06:57:36;;;;;;;0.10;0.10;;;;;;;;;;4974791;28;20652;-76
2022/12/09 07:00:05;;;;;;;0.10;0.10;;;;;;;;;;4966066;28;20215;-76
2022/12/09 07:02:34;;;;;;;0.10;0.10;;;;;;;;;;4981512;28;20223;-76
2022/12/09 07:05:04;;;;;;;0.10;0.10;;;;;;;;;;4981927;28;20254;-76
2022/12/09 07:07:35;;;;;;;0.10;0.10;;;;;;;;;;4973251;28;20210;-76
2022/12/09 07:10:07;;;;;;;0.10;0.10;;;;;;;;;;4973358;28;20211;-76
2022/12/09 07:12:36;;;;;;;0.10;0.10;;;;;;;;;;4981628;28;21225;-76
2022/12/09 07:15:05;;;;;;;0.10;0.10;;;;;;;;;;4985164;28;20239;-77
2022/12/09 07:17:35;;;;;;;0.10;0.10;;;;;;;;;;4977451;28;20209;-76
2022/12/09 07:20:04;;;;;;;0.10;0.10;;;;;;;;;;4979239;28;20242;-76
2022/12/09 07:22:35;;;;;;;0.10;0.10;;;;;;;;;;4977110;28;20256;-76
2022/12/09 07:25:06;;;;;;;0.10;0.10;;;;;;;;;;4967342;28;20230;-76
2022/12/09 07:27:36;;;;;;;0.10;0.10;;;;;;;;;;4964631;28;20206;-75
2022/12/09 07:30:05;;;;;;;0.10;0.10;;;;;;;;;;4975444;28;20694;-76
2022/12/09 07:32:33;;;;;;;0.10;0.10;;;;;;;;;;4976864;28;20314;-76
2022/12/09 07:35:02;;;;;;;0.10;0.10;;;;;;;;;;4978270;28;20242;-76
2022/12/09 07:37:35;;;;;;;0.10;0.10;;;;;;;;;;4996581;28;20210;-76
2022/12/09 07:40:07;;;;;;;0.10;0.10;;;;;;;;;;4992495;28;20206;-75
2022/12/09 07:42:36;;;;;;;0.10;0.10;;;;;;;;;;4976511;28;20757;-76
2022/12/09 07:45:05;;;;;;;0.10;0.10;;;;;;;;;;4973923;28;20224;-76
2022/12/09 07:47:35;;;;;;;0.10;0.10;;;;;;;;;;4969890;28;20284;-76
2022/12/09 07:50:04;;;;;;;0.10;0.10;;;;;;;;;;4991946;28;20613;-78
2022/12/09 07:52:34;;;;;;;0.10;0.10;;;;;;;;;;4981092;28;20249;-76
2022/12/09 07:55:03;;;;;;;0.10;0.10;;;;;;;;;;4977565;28;20231;-76
2022/12/09 07:57:35;;;;;;;0.10;0.10;;;;;;;;;;4972039;28;20257;-76
2022/12/09 08:00:06;;;;;;;0.10;0.10;;;;;;;;;;4978146;28;20217;-76
2022/12/09 08:02:35;;;;;;;0.10;0.10;;;;;;;;;;4976175;28;20224;-76
2022/12/09 08:05:04;;;;;;;0.10;0.10;;;;;;;;;;4987776;28;20229;-76
2022/12/09 08:07:35;;;;;;;0.10;0.10;;;;;;;;;;4974487;28;20207;-76
2022/12/09 08:10:12;;;;;;;0.10;0.10;;;;;;;;;;4971350;28;20214;-76
2022/12/09 08:12:42;;;;;;;0.10;0.10;;;;;;;;;;4968626;28;20641;-76
2022/12/09 08:15:11;;;;;;;0.10;0.10;;;;;;;;;;4975946;28;20223;-76
2022/12/09 08:17:41;;;;;;;0.10;0.10;;;;;;;;;;4968355;28;20687;-76
2022/12/09 08:20:11;;;;;;;0.10;0.10;;;;;;;;;;4982174;28;20244;-76
2022/12/09 08:22:41;;;;;;;0.10;0.10;;;;;;;;;;4974431;28;20235;-76
2022/12/09 08:25:10;;;;;;;0.10;0.10;;;;;;;;;;4977797;28;20226;-76
2022/12/09 08:27:39;;;;;;;0.10;0.10;;;;;;;;;;4980670;28;20253;-76
2022/12/09 08:30:11;;;;;;;0.10;0.10;;;;;;;;;;4981642;28;20216;-76
2022/12/09 08:32:40;;;;;;;0.10;0.10;;;;;;;;;;4984338;28;20261;-76
2022/12/09 08:35:13;;;;;;;0.10;0.10;;;;;;;;;;4987726;28;20233;-76
2022/12/09 08:37:44;;;;;;;0.10;0.10;;;;;;;;;;4985356;28;20642;-76
2022/12/09 08:40:13;;;;;;;0.10;0.10;;;;;;;;;;4971533;28;20292;-78
2022/12/09 08:42:43;;;;;;;0.10;0.10;;;;;;;;;;4972915;28;20238;-77
2022/12/09 08:45:13;;;;;;;0.10;0.10;;;;;;;;;;4982461;28;20259;-78
2022/12/09 08:47:42;;;;;;;0.10;0.10;;;;;;;;;;4981052;28;20216;-78
2022/12/09 08:50:12;;;;;;;0.10;0.10;;;;;;;;;;4987588;28;20228;-77
2022/12/09 08:52:42;;;;;;;0.10;0.10;;;;;;;;;;4978252;28;20687;-77
2022/12/09 08:55:11;;;;;;;0.10;0.10;;;;;;;;;;4971418;28;20241;-77
2022/12/09 08:57:40;;;;;;;0.10;0.10;;;;;;;;;;4974646;28;20229;-77
2022/12/09 09:00:09;;;;;;;0.10;0.10;;;;;;;;;;4978149;28;20287;-76
2022/12/09 09:02:39;;;;;;;0.10;0.10;;;;;;;;;;4984963;28;20214;-78
2022/12/09 09:05:09;;;;;;;0.10;0.10;;;;;;;;;;4987024;28;20739;-77
2022/12/09 09:07:38;;;;;;;0.10;0.10;;;;;;;;;;4993876;28;20208;-77
2022/12/09 09:10:07;;;;;;;0.10;0.10;;;;;;;;;;4975936;28;20243;-76
2022/12/09 09:12:37;;;;;;;0.00;0.00;;;;;;;;;;4974676;28;20221;-77
2022/12/09 09:15:11;;;;;;;0.10;0.10;;;;;;;;;;4982910;28;20241;-76
2022/12/09 09:17:42;;;;;;;0.10;0.10;;;;;;;;;;4981386;28;20212;-74
2022/12/09 09:20:19;;;;;;;0.10;0.10;;;;;;;;;;4975885;28;20245;-76
2022/12/09 09:22:48;;;;;;;0.00;0.00;;;;;;;;;;4988127;28;20209;-76
2022/12/09 09:25:17;;;;;;;0.00;0.00;;;;;;;;;;4989476;28;20235;-76
2022/12/09 09:27:48;;;;;;;0.00;0.00;;;;;;;;;;4990018;28;20206;-76
2022/12/09 09:30:17;;;;;;;0.00;0.00;;;;;;;;;;4976678;28;20214;-76
2022/12/09 09:32:47;;;;;;;0.00;0.00;;;;;;;;;;4975886;28;20207;-76
2022/12/09 09:35:16;;;;;;;0.00;0.00;;;;;;;;;;4976112;28;20239;-77
2022/12/09 09:37:46;;;;;;;0.00;0.00;;;;;;;;;;4981240;28;20689;-76
2022/12/09 09:40:15;;;;;;;0.00;0.00;;;;;;;;;;4980207;28;20253;-75
2022/12/09 09:42:46;;;;;;;0.00;0.00;;;;;;;;;;4984679;28;20558;-76
2022/12/09 09:45:16;;;;;;;0.00;0.00;;;;;;;;;;4977251;28;20249;-76
2022/12/09 09:47:47;;;;;;;0.00;0.00;;;;;;;;;;4977127;28;20209;-76
2022/12/09 09:50:23;;;;;;;0.00;0.00;;;;;;;;;;4972323;28;20645;-76
2022/12/09 09:52:53;;;;;;;0.10;0.10;;;;;;;;;;4963966;28;20659;-76
2022/12/09 09:55:27;;;;;;;0.00;0.00;;;;;;;;;;4980132;28;20677;-77
2022/12/09 09:58:01;;;;;;;0.00;0.00;;;;;;;;;;4993719;28;20755;-77
2022/12/09 10:00:32;;;;;;;0.00;0.00;;;;;;;;;;4975617;28;20199;-77
2022/12/09 10:03:02;;;;;;;0.03;0.03;;;;;;;;;;4973893;28;20234;-77
2022/12/09 10:05:35;;;;;;;0.10;0.10;;;;;;;;;;4981363;28;20230;-77
2022/12/09 10:08:11;;;;;;;0.00;0.00;;;;;;;;;;4992260;28;20232;-77
2022/12/09 10:10:44;;;;;;;0.10;0.10;;;;;;;;;;4976035;28;20744;-79
2022/12/09 10:13:30;;;;;;;0.10;0.10;;;;;;;;;;4974378;28;20223;-76
2022/12/09 10:16:17;;;;;;;0.00;0.00;;;;;;;;;;4972986;28;20351;-77
2022/12/09 10:18:55;;;;;;;0.10;0.10;;;;;;;;;;4957073;28;20267;-77
2022/12/09 10:21:32;;;;;;;0.10;0.10;;;;;;;;;;4984844;28;20213;-77
2022/12/09 10:24:07;;;;;;;0.00;0.00;;;;;;;;;;4972524;28;20308;-80
2022/12/09 10:26:37;;;;;;;0.10;0.10;;;;;;;;;;4984208;28;20209;-83
2022/12/09 10:29:11;;;;;;;0.00;0.00;;;;;;;;;;4982591;28;20218;-78
2022/12/09 10:31:40;;;;;;;0.10;0.10;;;;;;;;;;4978012;28;20195;-77
2022/12/09 10:34:10;;;;;;;0.00;0.00;;;;;;;;;;4988838;28;20223;-78
2022/12/09 10:36:43;;;;;;;0.10;0.10;;;;;;;;;;4978565;28;20281;-79
2022/12/09 10:39:15;;;;;;;0.00;0.00;;;;;;;;;;4972210;28;20678;-78
2022/12/09 10:44:32;;;;;;;0.00;0.00;;;;;;;;;;4973033;28;20233;-79
2022/12/09 10:47:02;;;;;;;0.00;0.00;;;;;;;;;;4979025;28;20243;-77
2022/12/09 10:49:32;;;;;;;0.10;0.10;;;;;;;;;;4970587;28;20296;-77
2022/12/09 10:52:03;;;;;;;0.00;0.00;;;;;;;;;;4993610;28;20204;-77
2022/12/09 10:54:35;;;;;;;0.00;0.00;;;;;;;;;;4974725;28;20299;-77
2022/12/09 10:57:06;;;;;;;0.00;0.00;;;;;;;;;;4993624;28;20214;-77
2022/12/09 10:59:36;;;;;;;0.00;0.00;;;;;;;;;;4983224;28;20275;-77
2022/12/09 11:02:18;;;;;;;0.10;0.10;;;;;;;;;;4979680;28;20199;-77
2022/12/09 11:04:47;;;;;;;0.00;0.00;;;;;;;;;;4982750;28;20231;-77
2022/12/09 11:07:19;;;;;;;0.10;0.10;;;;;;;;;;4973925;28;20204;-77
2022/12/09 11:09:50;;;;;;;0.00;0.00;;;;;;;;;;4980839;28;20232;-77
2022/12/09 11:12:30;;;;;;;0.00;0.00;;;;;;;;;;4993349;28;20673;-78
2022/12/09 11:15:23;;;;;;;0.10;0.10;;;;;;;;;;4977106;28;20328;-77
2022/12/09 11:17:56;;;;;;;0.10;0.10;;;;;;;;;;4979343;28;20198;-77
2022/12/09 11:20:27;;;;;;;0.00;0.00;;;;;;;;;;4973341;28;20209;-77
2022/12/09 11:23:02;;;;;;;0.00;0.00;;;;;;;;;;4973979;28;20206;-77
2022/12/09 11:25:32;;;;;;;0.00;0.00;;;;;;;;;;4973842;28;20328;-77
2022/12/09 11:28:02;;;;;;;0.00;0.00;;;;;;;;;;4954381;29;20257;-78
2022/12/09 11:30:32;;;;;;;0.00;0.00;;;;;;;;;;4963420;28;20246;-77
2022/12/09 11:33:04;;;;;;;0.00;0.00;;;;;;;;;;4962579;28;20210;-78
2022/12/09 11:35:35;;;;;;;0.10;0.10;;;;;;;;;;4975420;28;20218;-78
2022/12/09 11:38:15;;;;;;;0.00;0.00;;;;;;;;;;4968202;28;20561;-78
2022/12/09 11:40:44;;;;;;;0.00;0.00;;;;;;;;;;4986627;28;20208;-78
2022/12/09 11:43:13;;;;;;;0.00;0.00;;;;;;;;;;4987394;28;20206;-78
2022/12/09 11:45:45;;;;;;;0.00;0.00;;;;;;;;;;4976795;28;20238;-77
2022/12/09 11:48:20;;;;;;;0.00;0.00;;;;;;;;;;4983190;28;20204;-77
2022/12/09 11:51:00;;;;;;;0.00;0.00;;;;;;;;;;4982766;28;20244;-78
2022/12/09 11:53:31;;;;;;;0.00;0.00;;;;;;;;;;4971839;28;20234;-78
2022/12/09 11:56:02;;;;;;;0.00;0.00;;;;;;;;;;4972391;28;20257;-78
2022/12/09 11:58:36;;;;;;;0.00;0.00;;;;;;;;;;4977435;28;20281;-78
2022/12/09 12:01:06;;;;;;;0.00;0.00;;;;;;;;;;4975338;28;20651;-77
2022/12/09 12:03:38;;;;;;;0.00;0.00;;;;;;;;;;4979108;28;20233;-78
2022/12/09 12:06:09;;;;;;;0.00;0.00;;;;;;;;;;4976886;28;20269;-78
2022/12/09 12:08:42;;;;;;;0.00;0.00;;;;;;;;;;4973247;28;20229;-78
2022/12/09 12:11:12;;;;;;;0.00;0.00;;;;;;;;;;4982720;28;20257;-78
2022/12/09 12:13:46;;;;;;;0.00;0.00;;;;;;;;;;4979018;28;20213;-78
2022/12/09 12:16:19;;;;;;;0.00;0.00;;;;;;;;;;4995235;28;20670;-78
2022/12/09 12:18:50;;;;;;;0.00;0.00;;;;;;;;;;4988538;28;20238;-78
2022/12/09 12:21:36;;;;;;;0.00;0.00;;;;;;;;;;4975247;28;20709;-78
2022/12/09 12:24:22;;;;;;;0.00;0.00;;;;;;;;;;4961164;28;20257;-79
2022/12/09 12:26:56;;;;;;;0.00;0.00;;;;;;;;;;4973169;28;20234;-78
2022/12/09 12:29:32;;;;;;;0.00;0.00;;;;;;;;;;4987296;28;20625;-78
2022/12/09 12:32:08;;;;;;;0.00;0.00;;;;;;;;;;4976256;28;20197;-78
2022/12/09 12:34:40;;;;;;;0.00;0.00;;;;;;;;;;4976240;28;20257;-78
2022/12/09 12:37:18;;;;;;;0.00;0.00;;;;;;;;;;4975488;28;20663;-77
2022/12/09 12:39:52;;;;;;;0.00;0.00;;;;;;;;;;4973980;28;20202;-79
2022/12/09 12:42:25;;;;;;;0.00;0.00;;;;;;;;;;4980513;28;20275;-78
2022/12/09 12:47:47;;;;;;;0.00;0.00;;;;;;;;;;4986558;28;20209;-77
2022/12/09 12:50:29;;;;;;;0.00;0.00;;;;;;;;;;4974514;28;20585;-78
2022/12/09 12:53:01;;;;;;;0.00;0.00;;;;;;;;;;4964173;28;20265;-78
2022/12/09 12:55:47;;;;;;;0.00;0.00;;;;;;;;;;4979606;28;20256;-78
2022/12/09 12:58:19;;;;;;;0.00;0.00;;;;;;;;;;4986784;28;20197;-78
2022/12/09 13:00:55;;;;;;;0.00;0.00;;;;;;;;;;4979288;28;20233;-78
2022/12/09 13:03:26;;;;;;;0.00;0.00;;;;;;;;;;4975395;28;20256;-78
2022/12/09 13:05:57;;;;;;;0.00;0.00;;;;;;;;;;4973132;28;20289;-78
2022/12/09 13:08:28;;;;;;;0.00;0.00;;;;;;;;;;4969981;28;20237;-78
2022/12/09 13:10:58;;;;;;;0.00;0.00;;;;;;;;;;4977267;28;20209;-78
2022/12/09 13:13:30;;;;;;;0.00;0.00;;;;;;;;;;4959121;28;20210;-78
2022/12/09 13:16:00;;;;;;;0.00;0.00;;;;;;;;;;4979917;28;20252;-78
2022/12/09 13:18:31;;;;;;;0.00;0.00;;;;;;;;;;4990548;28;20661;-78
2022/12/09 13:21:01;;;;;;;0.00;0.00;;;;;;;;;;4974010;28;20248;-78
2022/12/09 13:23:33;;;;;;;0.00;0.00;;;;;;;;;;4987829;28;20268;-78
2022/12/09 13:26:07;;;;;;;0.10;0.10;;;;;;;;;;4965516;28;20303;-78
2022/12/09 13:28:45;;;;;;;0.00;0.00;;;;;;;;;;4991506;28;20325;-78
2022/12/09 13:31:15;;;;;;;0.00;0.00;;;;;;;;;;4976093;28;20976;-77
2022/12/09 13:33:53;;;;;;;0.00;0.00;;;;;;;;;;4962163;28;20209;-78
2022/12/09 13:36:23;;;;;;;0.00;0.00;;;;;;;;;;4971666;28;20240;-78
2022/12/09 13:38:52;;;;;;;0.03;0.03;;;;;;;;;;4987337;28;20211;-78
2022/12/09 13:42:51;;;;;;;0.00;0.00;;;;;;;;;;4972697;28;20657;-78
2022/12/09 13:44:28;;;;;;;0.00;0.00;;;;;;;;;;4963562;28;20260;-77
2022/12/09 13:47:11;;;;;;;0.00;0.00;;;;;;;;;;4982765;28;20779;-77
2022/12/09 13:49:40;;;;;;;0.00;0.00;;;;;;;;;;4971761;28;20659;-77
2022/12/09 13:52:09;;;;;;;0.10;0.10;;;;;;;;;;4980687;28;20253;-77
2022/12/09 13:54:47;;;;;;;0.00;0.00;;;;;;;;;;4975277;28;20606;-77
2022/12/09 13:57:26;;;;;;;0.00;0.00;;;;;;;;;;4961488;28;20228;-77
2022/12/09 13:59:57;;;;;;;0.10;0.10;;;;;;;;;;4968702;28;20673;-78
2022/12/09 14:02:28;;;;;;;0.00;0.00;;;;;;;;;;4955018;29;20583;-77
2022/12/09 14:05:06;;;;;;;0.00;0.00;;;;;;;;;;4968054;28;20233;-77
2022/12/09 14:07:37;;;;;;;0.00;0.00;;;;;;;;;;4971060;28;20273;-77
2022/12/09 14:10:06;;;;;;;0.00;0.00;;;;;;;;;;4969633;28;20247;-77
2022/12/09 14:12:54;;;;;;;0.00;0.00;;;;;;;;;;4970118;28;20218;-77
2022/12/09 14:15:38;;;;;;;0.00;0.00;;;;;;;;;;4982414;28;20256;-78
2022/12/09 14:18:27;;;;;;;0.10;0.10;;;;;;;;;;4976723;28;20273;-78
2022/12/09 14:21:14;;;;;;;0.00;0.00;;;;;;;;;;4969937;28;20287;-77
2022/12/09 14:24:10;;;;;;;0.00;0.00;;;;;;;;;;4977169;28;20202;-77
2022/12/09 14:26:39;;;;;;;0.00;0.00;;;;;;;;;;4958567;28;20225;-78
2022/12/09 14:29:08;;;;;;;0.10;0.10;;;;;;;;;;4966399;28;20289;-77
2022/12/09 14:31:58;;;;;;;0.10;0.10;;;;;;;;;;4973394;28;20227;-77
2022/12/09 14:34:38;;;;;;;0.10;0.10;;;;;;;;;;4974499;28;20295;-77
2022/12/09 14:37:22;;;;;;;0.00;0.00;;;;;;;;;;4987537;28;20205;-78
2022/12/09 14:39:55;;;;;;;0.00;0.00;;;;;;;;;;4972492;28;20206;-78
2022/12/09 14:42:28;;;;;;;0.00;0.00;;;;;;;;;;4988607;28;20210;-78
2022/12/09 14:45:00;;;;;;;0.00;0.00;;;;;;;;;;4977818;28;20226;-77
2022/12/09 14:47:29;;;;;;;0.00;0.00;;;;;;;;;;4972868;28;20224;-78
2022/12/09 14:50:07;;;;;;;0.00;0.00;;;;;;;;;;4978511;28;20209;-77
2022/12/09 14:52:36;;;;;;;0.00;0.00;;;;;;;;;;4971509;28;20285;-78
2022/12/09 14:55:07;;;;;;;0.00;0.00;;;;;;;;;;4975940;28;20222;-78
2022/12/09 14:57:38;;;;;;;0.00;0.00;;;;;;;;;;4974371;28;20228;-77
2022/12/09 15:00:07;;;;;;;0.00;0.00;;;;;;;;;;4984292;28;20238;-77
2022/12/09 15:02:36;;;;;;;0.00;0.00;;;;;;;;;;4967817;28;20205;-77
2022/12/09 15:05:17;;;;;;;0.00;0.00;;;;;;;;;;4981629;28;20225;-77
2022/12/09 15:07:46;;;;;;;0.00;0.00;;;;;;;;;;4951836;28;20224;-77
2022/12/09 15:10:18;;;;;;;0.00;0.00;;;;;;;;;;4969257;28;20216;-76
2022/12/09 15:12:49;;;;;;;0.00;0.00;;;;;;;;;;4969574;28;20209;-77
2022/12/09 15:15:19;;;;;;;0.10;0.10;;;;;;;;;;4979794;28;20264;-77